createdAt,value
2018-07-22T00:03:36.506Z,22.10
2018-07-22T00:08:29.711Z,22.10
2018-07-22T00:13:22.917Z,22.20
2018-07-22T00:18:16.165Z,22.00
2018-07-22T00:23:09.425Z,22.00
2018-07-22T00:28:02.634Z,22.00
2018-07-22T00:32:55.907Z,22.00
2018-07-22T00:37:49.146Z,22.00
2018-07-22T00:42:42.377Z,22.00
2018-07-22T00:47:35.584Z,22.00
2018-07-22T00:52:28.842Z,21.90
2018-07-22T00:57:22.053Z,21.90
2018-07-22T01:02:15.272Z,21.80
2018-07-22T01:07:08.513Z,21.80
2018-07-22T01:16:54.975Z,21.70
2018-07-22T01:21:48.267Z,21.60
2018-07-22T01:26:41.488Z,21.50
2018-07-22T01:31:34.729Z,21.40
2018-07-22T01:36:27.935Z,21.40
2018-07-22T01:41:21.209Z,21.40
2018-07-22T01:46:14.545Z,21.40
2018-07-22T01:51:08.203Z,21.20
2018-07-22T01:56:01.435Z,21.20
2018-07-22T02:00:54.707Z,21.10
2018-07-22T02:05:47.969Z,21.00
2018-07-22T02:10:41.236Z,20.90
2018-07-22T02:15:34.464Z,20.90
2018-07-22T02:30:14.086Z,20.70
2018-07-22T02:40:00.421Z,20.70
2018-07-22T02:49:46.792Z,20.40
2018-07-22T02:54:39.994Z,20.40
2018-07-22T02:59:33.238Z,20.30
2018-07-22T03:04:26.460Z,20.30
2018-07-22T03:09:19.819Z,20.20
2018-07-22T03:14:13.074Z,20.30
2018-07-22T03:19:07.093Z,20.30
2018-07-22T03:24:00.327Z,20.30
2018-07-22T03:28:53.897Z,20.40
2018-07-22T03:38:40.247Z,20.20
2018-07-22T03:48:26.630Z,20.10
2018-07-22T03:53:20.230Z,19.90
2018-07-22T04:03:07.087Z,19.70
2018-07-22T04:08:00.314Z,19.80
2018-07-22T04:12:53.545Z,19.80
2018-07-22T04:17:46.863Z,19.70
2018-07-22T04:22:40.096Z,19.60
2018-07-22T04:27:33.305Z,19.70
2018-07-22T04:32:26.539Z,19.70
2018-07-22T04:37:19.778Z,19.90
2018-07-22T04:42:13.024Z,19.90
2018-07-22T04:47:06.285Z,19.80
2018-07-22T04:51:59.508Z,19.90
2018-07-22T04:56:52.721Z,19.80
2018-07-22T05:01:45.971Z,19.80
2018-07-22T05:06:39.260Z,19.80
2018-07-22T05:11:32.498Z,20.00
2018-07-22T05:16:25.721Z,20.00
2018-07-22T05:21:18.977Z,20.20
2018-07-22T05:26:12.208Z,20.30
2018-07-22T05:31:05.485Z,20.50
2018-07-22T05:35:58.786Z,20.50
2018-07-22T05:40:52.073Z,20.40
2018-07-22T05:45:45.394Z,20.60
2018-07-22T06:00:24.930Z,21.70
2018-07-22T06:05:18.155Z,22.00
2018-07-22T06:10:11.459Z,22.10
2018-07-22T06:19:59.518Z,22.50
2018-07-22T06:24:52.802Z,23.10
2018-07-22T06:29:46.117Z,24.20
2018-07-22T06:34:39.459Z,25.40
2018-07-22T06:44:27.251Z,30.70
2018-07-22T06:49:20.872Z,32.00
2018-07-22T06:54:14.154Z,32.70
2018-07-22T06:59:07.429Z,31.70
2018-07-22T07:04:00.791Z,30.70
2018-07-22T07:08:54.027Z,32.10
2018-07-22T07:13:47.388Z,31.70
2018-07-22T07:18:41.059Z,30.90
2018-07-22T07:23:34.263Z,30.00
2018-07-22T07:33:20.659Z,30.20
2018-07-22T07:38:13.899Z,31.20
2018-07-22T07:43:07.266Z,32.10
2018-07-22T07:52:53.672Z,32.80
2018-07-22T07:57:46.857Z,33.80
2018-07-22T08:02:40.097Z,35.10
2018-07-22T08:07:33.304Z,35.50
2018-07-22T08:12:26.563Z,35.30
2018-07-22T08:17:19.846Z,36.90
2018-07-22T08:22:13.101Z,36.80
2018-07-22T08:27:06.407Z,36.50
2018-07-22T08:32:00.465Z,35.80
2018-07-22T08:36:53.747Z,36.00
2018-07-22T08:41:47.517Z,35.70
2018-07-22T08:46:45.167Z,35.60
2018-07-22T08:56:32.195Z,36.20
2018-07-22T09:01:29.980Z,36.50
2018-07-22T09:06:24.099Z,36.30
2018-07-22T09:16:10.463Z,36.40
2018-07-22T09:21:03.723Z,36.70
2018-07-22T09:25:56.951Z,36.80
2018-07-22T09:31:02.775Z,36.50
2018-07-22T09:36:11.045Z,36.00
2018-07-22T09:41:27.557Z,35.90
2018-07-22T09:52:00.200Z,35.40
2018-07-22T09:56:56.933Z,35.10
2018-07-22T10:01:53.509Z,35.30
2018-07-22T10:06:49.948Z,34.90
2018-07-22T10:11:44.090Z,34.50
2018-07-22T10:16:37.461Z,34.10
2018-07-22T10:21:30.791Z,33.00
2018-07-22T10:26:24.075Z,32.10
2018-07-22T10:31:17.353Z,31.50
2018-07-22T10:36:10.584Z,30.90
2018-07-22T10:41:03.860Z,30.70
2018-07-22T10:45:57.113Z,30.90
2018-07-22T10:55:43.615Z,30.30
2018-07-22T11:00:36.891Z,30.10
2018-07-22T11:05:30.150Z,29.80
2018-07-22T11:10:23.381Z,30.00
2018-07-22T11:15:16.590Z,30.00
2018-07-22T11:20:09.863Z,29.90
2018-07-22T11:25:03.130Z,30.00
2018-07-22T11:29:56.366Z,30.10
2018-07-22T11:34:50.709Z,30.10
2018-07-22T11:39:44.032Z,29.50
2018-07-22T11:44:41.003Z,29.40
2018-07-22T11:49:34.281Z,29.40
2018-07-22T11:54:27.497Z,29.80
2018-07-22T11:59:22.077Z,29.80
2018-07-22T12:04:15.520Z,30.00
2018-07-22T12:09:10.871Z,30.10
2018-07-22T12:14:04.193Z,30.30
2018-07-22T12:18:57.467Z,30.00
2018-07-22T12:23:50.715Z,30.10
2018-07-22T12:28:44.004Z,30.10
2018-07-22T12:33:37.245Z,30.40
2018-07-22T12:43:33.473Z,31.30
2018-07-22T12:48:26.712Z,31.20
2018-07-22T12:53:24.951Z,31.50
2018-07-22T12:58:18.247Z,31.50
2018-07-22T13:03:11.713Z,31.30
2018-07-22T13:08:19.456Z,31.30
2018-07-22T13:13:40.612Z,31.10
2018-07-22T13:18:33.985Z,30.70
2018-07-22T13:23:28.191Z,30.90
2018-07-22T13:28:22.183Z,31.00
2018-07-22T13:43:03.107Z,30.60
2018-07-22T13:47:56.418Z,31.10
2018-07-22T13:52:49.657Z,31.40
2018-07-22T13:57:42.869Z,31.40
2018-07-22T14:02:36.089Z,31.50
2018-07-22T14:07:29.347Z,31.50
2018-07-22T14:12:22.591Z,31.80
2018-07-22T14:17:15.889Z,31.50
2018-07-22T14:22:09.136Z,31.40
2018-07-22T14:27:02.355Z,31.30
2018-07-22T14:31:55.601Z,31.80
2018-07-22T14:36:48.839Z,32.10
2018-07-22T14:41:42.144Z,32.30
2018-07-22T14:46:35.691Z,32.20
2018-07-22T14:56:23.082Z,31.70
2018-07-22T15:01:16.336Z,31.80
2018-07-22T15:11:03.080Z,31.90
2018-07-22T15:15:56.354Z,31.80
2018-07-22T15:20:49.568Z,31.50
2018-07-22T15:25:42.796Z,31.00
2018-07-22T15:30:36.065Z,30.90
2018-07-22T15:35:29.299Z,30.80
2018-07-22T15:40:22.525Z,30.60
2018-07-22T15:45:15.792Z,30.60
2018-07-22T15:50:09.013Z,30.40
2018-07-22T15:55:02.282Z,30.20
2018-07-22T15:59:55.489Z,29.80
2018-07-22T16:04:48.749Z,29.40
2018-07-22T16:09:41.996Z,29.20
2018-07-22T16:19:28.396Z,28.70
2018-07-22T16:24:21.630Z,28.60
2018-07-22T16:29:14.874Z,28.40
2018-07-22T16:39:01.322Z,28.10
2018-07-22T16:48:47.656Z,28.10
2018-07-22T16:53:41.626Z,28.10
2018-07-22T16:58:34.849Z,28.20
2018-07-22T17:03:28.084Z,28.30
2018-07-22T17:08:21.299Z,28.40
2018-07-22T17:13:14.529Z,28.40
2018-07-22T17:18:07.725Z,28.60
2018-07-22T17:27:54.025Z,28.70
2018-07-22T17:32:47.245Z,28.60
2018-07-22T17:42:34.605Z,28.40
2018-07-22T17:47:28.916Z,28.00
2018-07-22T17:57:16.055Z,27.80
2018-07-22T18:02:09.705Z,27.70
2018-07-22T18:07:02.947Z,27.60
2018-07-22T18:16:49.269Z,27.50
2018-07-22T18:21:42.495Z,27.40
2018-07-22T18:26:35.745Z,27.30
2018-07-22T18:31:28.999Z,27.20
2018-07-22T18:41:15.365Z,27.00
2018-07-22T18:46:08.602Z,26.90
2018-07-22T18:51:02.231Z,26.80
2018-07-22T19:00:48.584Z,26.70
2018-07-22T19:05:41.885Z,26.60
2018-07-22T19:10:35.123Z,26.60
2018-07-22T19:15:28.361Z,26.50
2018-07-22T19:20:21.579Z,26.40
2018-07-22T19:25:14.871Z,26.30
2018-07-22T19:30:08.101Z,26.20
2018-07-22T19:39:54.433Z,25.90
2018-07-22T19:44:47.629Z,25.80
2018-07-22T19:49:40.908Z,25.80
2018-07-22T19:59:27.989Z,25.70
2018-07-22T20:04:21.279Z,25.60
2018-07-22T20:09:14.538Z,25.50
2018-07-22T20:14:07.796Z,25.40
2018-07-22T20:19:01.126Z,25.20
2018-07-22T20:23:54.388Z,25.10
2018-07-22T20:28:47.730Z,25.10
2018-07-22T20:33:40.944Z,25.00
2018-07-22T20:38:34.372Z,24.90
2018-07-22T20:48:20.795Z,24.50
2018-07-22T20:53:14.110Z,24.50
2018-07-22T20:58:08.110Z,24.50
2018-07-22T21:03:41.502Z,24.50
2018-07-22T21:08:34.706Z,24.40
2018-07-22T21:13:28.065Z,24.40
2018-07-22T21:18:21.348Z,24.30
2018-07-22T21:23:14.626Z,24.10
2018-07-22T21:28:07.985Z,24.00
2018-07-22T21:33:01.410Z,24.00
2018-07-22T21:42:47.893Z,23.80
2018-07-22T21:47:41.130Z,23.60
2018-07-22T21:52:34.322Z,23.50
2018-07-22T21:57:27.663Z,23.40
2018-07-22T22:02:21.084Z,23.30
2018-07-22T22:07:14.374Z,23.10
2018-07-22T22:12:08.293Z,23.10
2018-07-22T22:17:01.859Z,23.00
2018-07-22T22:26:48.169Z,22.80
2018-07-22T22:31:42.042Z,22.60
2018-07-22T22:36:35.751Z,22.50
2018-07-22T22:41:29.075Z,22.40
2018-07-22T22:46:22.322Z,22.20
2018-07-22T22:56:08.669Z,22.10
2018-07-22T23:05:55.084Z,21.90
2018-07-22T23:10:48.375Z,21.70
2018-07-22T23:15:42.125Z,21.60
2018-07-22T23:20:35.371Z,21.60
2018-07-22T23:25:28.633Z,21.50
2018-07-22T23:35:15.223Z,21.30
2018-07-22T23:40:08.439Z,21.20
2018-07-22T23:45:01.659Z,21.20
2018-07-22T23:49:54.878Z,21.10
2018-07-22T23:54:48.093Z,21.00
2018-07-22T23:59:41.371Z,21.00
